sensor_id;sensor_type;location;lat;lon;timestamp;temperature;humidity
26595;DHT22;14238;49.496;8.154;2023-02-02T00:01:53;6.60;99.90
26595;DHT22;14238;49.496;8.154;2023-02-02T00:04:24;6.50;99.90
26595;DHT22;14238;49.496;8.154;2023-02-02T00:06:49;6.60;99.90
26595;DHT22;14238;49.496;8.154;2023-02-02T00:09:18;6.60;99.90
26595;DHT22;14238;49.496;8.154;2023-02-02T00:11:45;6.60;99.90
26595;DHT22;14238;49.496;8.154;2023-02-02T00:14:11;6.50;99.90
26595;DHT22;14238;49.496;8.154;2023-02-02T00:16:42;6.50;99.90
26595;DHT22;14238;49.496;8.154;2023-02-02T00:19:17;6.50;99.90
26595;DHT22;14238;49.496;8.154;2023-02-02T00:21:43;6.50;99.90
26595;DHT22;14238;49.496;8.154;2023-02-02T00:24:11;6.50;99.90
26595;DHT22;14238;49.496;8.154;2023-02-02T00:26:38;6.60;99.90
26595;DHT22;14238;49.496;8.154;2023-02-02T00:29:05;6.50;99.90
26595;DHT22;14238;49.496;8.154;2023-02-02T00:31:31;6.50;99.90
26595;DHT22;14238;49.496;8.154;2023-02-02T00:33:56;6.60;99.90
26595;DHT22;14238;49.496;8.154;2023-02-02T00:36:22;6.60;99.90
26595;DHT22;14238;49.496;8.154;2023-02-02T00:38:49;6.60;99.90
26595;DHT22;14238;49.496;8.154;2023-02-02T00:41:15;6.60;99.90
26595;DHT22;14238;49.496;8.154;2023-02-02T00:43:41;6.60;99.90
26595;DHT22;14238;49.496;8.154;2023-02-02T00:46:12;6.50;99.90
26595;DHT22;14238;49.496;8.154;2023-02-02T00:48:38;6.60;99.90
26595;DHT22;14238;49.496;8.154;2023-02-02T00:51:04;6.70;99.90
26595;DHT22;14238;49.496;8.154;2023-02-02T00:53:29;6.60;99.90
26595;DHT22;14238;49.496;8.154;2023-02-02T00:55:55;6.70;99.90
26595;DHT22;14238;49.496;8.154;2023-02-02T00:58:20;6.70;99.90
26595;DHT22;14238;49.496;8.154;2023-02-02T01:00:46;6.70;99.90
26595;DHT22;14238;49.496;8.154;2023-02-02T01:03:11;6.70;99.90
26595;DHT22;14238;49.496;8.154;2023-02-02T01:05:37;6.70;99.90
26595;DHT22;14238;49.496;8.154;2023-02-02T01:08:03;6.70;99.90
26595;DHT22;14238;49.496;8.154;2023-02-02T01:10:29;6.70;99.90
26595;DHT22;14238;49.496;8.154;2023-02-02T01:12:55;6.70;99.90
26595;DHT22;14238;49.496;8.154;2023-02-02T01:15:20;6.70;99.90
26595;DHT22;14238;49.496;8.154;2023-02-02T01:17:46;6.70;99.90
26595;DHT22;14238;49.496;8.154;2023-02-02T01:20:17;6.60;99.90
26595;DHT22;14238;49.496;8.154;2023-02-02T01:22:43;6.60;99.90
26595;DHT22;14238;49.496;8.154;2023-02-02T01:25:09;6.60;99.90
26595;DHT22;14238;49.496;8.154;2023-02-02T01:27:35;6.70;99.90
26595;DHT22;14238;49.496;8.154;2023-02-02T01:30:00;6.70;99.90
26595;DHT22;14238;49.496;8.154;2023-02-02T01:32:26;6.70;99.90
26595;DHT22;14238;49.496;8.154;2023-02-02T01:34:51;6.80;99.90
26595;DHT22;14238;49.496;8.154;2023-02-02T01:37:17;6.70;99.90
26595;DHT22;14238;49.496;8.154;2023-02-02T01:39:42;6.70;99.90
26595;DHT22;14238;49.496;8.154;2023-02-02T01:42:12;6.70;99.90
26595;DHT22;14238;49.496;8.154;2023-02-02T01:45:05;6.70;99.90
26595;DHT22;14238;49.496;8.154;2023-02-02T01:47:37;6.70;99.90
26595;DHT22;14238;49.496;8.154;2023-02-02T01:50:05;6.70;99.90
26595;DHT22;14238;49.496;8.154;2023-02-02T01:52:33;6.70;99.90
26595;DHT22;14238;49.496;8.154;2023-02-02T01:55:03;6.80;99.90
26595;DHT22;14238;49.496;8.154;2023-02-02T01:57:39;6.70;99.90
26595;DHT22;14238;49.496;8.154;2023-02-02T02:00:10;6.70;99.90
26595;DHT22;14238;49.496;8.154;2023-02-02T02:02:37;6.80;99.90
26595;DHT22;14238;49.496;8.154;2023-02-02T02:05:04;6.70;99.90
26595;DHT22;14238;49.496;8.154;2023-02-02T02:07:30;6.80;99.90
26595;DHT22;14238;49.496;8.154;2023-02-02T02:09:56;6.80;99.90
26595;DHT22;14238;49.496;8.154;2023-02-02T02:12:22;6.70;99.90
26595;DHT22;14238;49.496;8.154;2023-02-02T02:14:49;6.70;99.90
26595;DHT22;14238;49.496;8.154;2023-02-02T02:21:23;6.80;99.90
26595;DHT22;14238;49.496;8.154;2023-02-02T02:35:17;6.70;99.90
26595;DHT22;14238;49.496;8.154;2023-02-02T02:42:54;6.80;99.90
26595;DHT22;14238;49.496;8.154;2023-02-02T02:45:22;6.80;99.90
26595;DHT22;14238;49.496;8.154;2023-02-02T02:47:49;6.70;99.90
26595;DHT22;14238;49.496;8.154;2023-02-02T02:50:15;6.70;99.90
26595;DHT22;14238;49.496;8.154;2023-02-02T02:52:41;6.70;99.90
26595;DHT22;14238;49.496;8.154;2023-02-02T02:55:08;6.70;99.90
26595;DHT22;14238;49.496;8.154;2023-02-02T03:00:39;6.70;99.90
26595;DHT22;14238;49.496;8.154;2023-02-02T03:06:40;6.70;99.90
26595;DHT22;14238;49.496;8.154;2023-02-02T03:09:10;6.70;99.90
26595;DHT22;14238;49.496;8.154;2023-02-02T03:11:37;6.60;99.90
26595;DHT22;14238;49.496;8.154;2023-02-02T03:14:03;6.60;99.90
26595;DHT22;14238;49.496;8.154;2023-02-02T03:16:31;6.70;99.90
26595;DHT22;14238;49.496;8.154;2023-02-02T03:18:57;6.70;99.90
26595;DHT22;14238;49.496;8.154;2023-02-02T03:21:23;6.60;99.90
26595;DHT22;14238;49.496;8.154;2023-02-02T03:23:48;6.70;99.90
26595;DHT22;14238;49.496;8.154;2023-02-02T03:26:14;6.70;99.90
26595;DHT22;14238;49.496;8.154;2023-02-02T03:28:39;6.70;99.90
26595;DHT22;14238;49.496;8.154;2023-02-02T03:31:05;6.60;99.90
26595;DHT22;14238;49.496;8.154;2023-02-02T03:33:32;6.70;99.90
26595;DHT22;14238;49.496;8.154;2023-02-02T03:35:59;6.80;99.90
26595;DHT22;14238;49.496;8.154;2023-02-02T03:38:25;6.70;99.90
26595;DHT22;14238;49.496;8.154;2023-02-02T03:40:50;6.80;99.90
26595;DHT22;14238;49.496;8.154;2023-02-02T03:43:23;6.80;99.90
26595;DHT22;14238;49.496;8.154;2023-02-02T03:45:55;6.70;99.90
26595;DHT22;14238;49.496;8.154;2023-02-02T03:48:20;6.70;99.90
26595;DHT22;14238;49.496;8.154;2023-02-02T03:50:46;6.70;99.90
26595;DHT22;14238;49.496;8.154;2023-02-02T03:53:12;6.80;99.90
26595;DHT22;14238;49.496;8.154;2023-02-02T03:55:37;6.80;99.90
26595;DHT22;14238;49.496;8.154;2023-02-02T03:58:04;6.80;99.90
26595;DHT22;14238;49.496;8.154;2023-02-02T04:00:30;6.80;99.90
26595;DHT22;14238;49.496;8.154;2023-02-02T04:02:56;6.70;99.90
26595;DHT22;14238;49.496;8.154;2023-02-02T04:05:21;6.70;99.90
26595;DHT22;14238;49.496;8.154;2023-02-02T04:07:47;6.80;99.90
26595;DHT22;14238;49.496;8.154;2023-02-02T04:10:13;6.80;99.90
26595;DHT22;14238;49.496;8.154;2023-02-02T04:12:39;6.70;99.90
26595;DHT22;14238;49.496;8.154;2023-02-02T04:15:05;6.80;99.90
26595;DHT22;14238;49.496;8.154;2023-02-02T04:17:30;6.80;99.90
26595;DHT22;14238;49.496;8.154;2023-02-02T04:19:56;6.70;99.90
26595;DHT22;14238;49.496;8.154;2023-02-02T04:22:23;6.90;99.90
26595;DHT22;14238;49.496;8.154;2023-02-02T04:24:49;6.90;99.90
26595;DHT22;14238;49.496;8.154;2023-02-02T04:27:15;6.80;99.90
26595;DHT22;14238;49.496;8.154;2023-02-02T04:29:40;6.90;99.90
26595;DHT22;14238;49.496;8.154;2023-02-02T04:32:06;6.80;99.90
26595;DHT22;14238;49.496;8.154;2023-02-02T04:34:31;6.80;99.90
26595;DHT22;14238;49.496;8.154;2023-02-02T04:36:57;6.80;99.90
26595;DHT22;14238;49.496;8.154;2023-02-02T04:39:22;6.90;99.90
26595;DHT22;14238;49.496;8.154;2023-02-02T04:41:48;6.80;99.90
26595;DHT22;14238;49.496;8.154;2023-02-02T04:44:14;6.80;99.90
26595;DHT22;14238;49.496;8.154;2023-02-02T04:46:43;6.80;99.90
26595;DHT22;14238;49.496;8.154;2023-02-02T04:49:10;6.90;99.90
26595;DHT22;14238;49.496;8.154;2023-02-02T04:51:37;6.80;99.90
26595;DHT22;14238;49.496;8.154;2023-02-02T04:54:03;6.80;99.90
26595;DHT22;14238;49.496;8.154;2023-02-02T04:56:28;6.90;99.90
26595;DHT22;14238;49.496;8.154;2023-02-02T04:58:54;6.90;99.90
26595;DHT22;14238;49.496;8.154;2023-02-02T05:01:23;6.80;99.90
26595;DHT22;14238;49.496;8.154;2023-02-02T05:03:49;6.80;99.90
26595;DHT22;14238;49.496;8.154;2023-02-02T05:06:15;6.80;99.90
26595;DHT22;14238;49.496;8.154;2023-02-02T05:08:41;6.80;99.90
26595;DHT22;14238;49.496;8.154;2023-02-02T05:11:27;6.80;99.90
26595;DHT22;14238;49.496;8.154;2023-02-02T05:13:55;6.80;99.90
26595;DHT22;14238;49.496;8.154;2023-02-02T05:16:21;6.80;99.90
26595;DHT22;14238;49.496;8.154;2023-02-02T05:18:48;6.90;99.90
26595;DHT22;14238;49.496;8.154;2023-02-02T05:21:14;6.80;99.90
26595;DHT22;14238;49.496;8.154;2023-02-02T05:23:40;6.70;99.90
26595;DHT22;14238;49.496;8.154;2023-02-02T05:26:05;6.70;99.90
26595;DHT22;14238;49.496;8.154;2023-02-02T05:28:31;6.60;99.90
26595;DHT22;14238;49.496;8.154;2023-02-02T05:31:03;6.60;99.90
26595;DHT22;14238;49.496;8.154;2023-02-02T05:33:29;6.60;99.90
26595;DHT22;14238;49.496;8.154;2023-02-02T05:35:54;6.50;99.90
26595;DHT22;14238;49.496;8.154;2023-02-02T05:38:20;6.60;99.90
26595;DHT22;14238;49.496;8.154;2023-02-02T05:40:47;6.60;99.90
26595;DHT22;14238;49.496;8.154;2023-02-02T05:43:13;6.50;99.90
26595;DHT22;14238;49.496;8.154;2023-02-02T05:45:39;6.60;99.90
26595;DHT22;14238;49.496;8.154;2023-02-02T05:48:04;6.60;99.90
26595;DHT22;14238;49.496;8.154;2023-02-02T05:50:30;6.60;99.90
26595;DHT22;14238;49.496;8.154;2023-02-02T05:52:56;6.60;99.90
26595;DHT22;14238;49.496;8.154;2023-02-02T05:55:21;6.60;99.90
26595;DHT22;14238;49.496;8.154;2023-02-02T05:57:47;6.60;99.90
26595;DHT22;14238;49.496;8.154;2023-02-02T06:00:13;6.60;99.90
26595;DHT22;14238;49.496;8.154;2023-02-02T06:02:38;6.60;99.90
26595;DHT22;14238;49.496;8.154;2023-02-02T06:05:04;6.50;99.90
26595;DHT22;14238;49.496;8.154;2023-02-02T06:07:30;6.50;99.90
26595;DHT22;14238;49.496;8.154;2023-02-02T06:09:56;6.40;99.90
26595;DHT22;14238;49.496;8.154;2023-02-02T06:12:21;6.40;99.90
26595;DHT22;14238;49.496;8.154;2023-02-02T06:14:47;6.40;99.90
26595;DHT22;14238;49.496;8.154;2023-02-02T06:17:12;6.50;99.90
26595;DHT22;14238;49.496;8.154;2023-02-02T06:19:38;6.50;99.90
26595;DHT22;14238;49.496;8.154;2023-02-02T06:22:03;6.50;99.90
26595;DHT22;14238;49.496;8.154;2023-02-02T06:24:29;6.50;99.90
26595;DHT22;14238;49.496;8.154;2023-02-02T06:26:54;6.50;99.90
26595;DHT22;14238;49.496;8.154;2023-02-02T06:29:20;6.50;99.90
26595;DHT22;14238;49.496;8.154;2023-02-02T06:31:45;6.60;99.90
26595;DHT22;14238;49.496;8.154;2023-02-02T06:34:11;6.60;99.90
26595;DHT22;14238;49.496;8.154;2023-02-02T06:36:40;6.50;99.90
26595;DHT22;14238;49.496;8.154;2023-02-02T06:39:07;6.50;99.90
26595;DHT22;14238;49.496;8.154;2023-02-02T06:41:34;6.60;99.90
26595;DHT22;14238;49.496;8.154;2023-02-02T06:43:59;6.60;99.90
26595;DHT22;14238;49.496;8.154;2023-02-02T06:46:25;6.70;99.90
26595;DHT22;14238;49.496;8.154;2023-02-02T06:48:51;6.70;99.90
26595;DHT22;14238;49.496;8.154;2023-02-02T06:51:16;6.60;99.90
26595;DHT22;14238;49.496;8.154;2023-02-02T06:53:42;6.60;99.90
26595;DHT22;14238;49.496;8.154;2023-02-02T06:56:11;6.70;99.90
26595;DHT22;14238;49.496;8.154;2023-02-02T06:58:37;6.70;99.90
26595;DHT22;14238;49.496;8.154;2023-02-02T07:01:05;6.70;99.90
26595;DHT22;14238;49.496;8.154;2023-02-02T07:03:32;6.60;99.90
26595;DHT22;14238;49.496;8.154;2023-02-02T07:05:57;6.70;99.90
26595;DHT22;14238;49.496;8.154;2023-02-02T07:08:23;6.70;99.90
26595;DHT22;14238;49.496;8.154;2023-02-02T07:10:48;6.70;99.90
26595;DHT22;14238;49.496;8.154;2023-02-02T07:13:14;6.70;99.90
26595;DHT22;14238;49.496;8.154;2023-02-02T07:15:40;6.60;99.90
26595;DHT22;14238;49.496;8.154;2023-02-02T07:18:06;6.70;99.90
26595;DHT22;14238;49.496;8.154;2023-02-02T07:20:32;6.60;99.90
26595;DHT22;14238;49.496;8.154;2023-02-02T07:22:57;6.60;99.90
26595;DHT22;14238;49.496;8.154;2023-02-02T07:25:23;6.60;99.90
26595;DHT22;14238;49.496;8.154;2023-02-02T07:27:53;6.50;99.90
26595;DHT22;14238;49.496;8.154;2023-02-02T07:30:19;6.50;99.90
26595;DHT22;14238;49.496;8.154;2023-02-02T07:32:48;6.50;99.90
26595;DHT22;14238;49.496;8.154;2023-02-02T07:35:15;6.50;99.90
26595;DHT22;14238;49.496;8.154;2023-02-02T07:37:41;6.50;99.90
26595;DHT22;14238;49.496;8.154;2023-02-02T07:40:07;6.50;99.90
26595;DHT22;14238;49.496;8.154;2023-02-02T07:42:33;6.50;99.90
26595;DHT22;14238;49.496;8.154;2023-02-02T07:44:58;6.50;99.90
26595;DHT22;14238;49.496;8.154;2023-02-02T07:47:25;6.50;99.90
26595;DHT22;14238;49.496;8.154;2023-02-02T07:49:51;6.50;99.90
26595;DHT22;14238;49.496;8.154;2023-02-02T07:52:16;6.50;99.90
26595;DHT22;14238;49.496;8.154;2023-02-02T07:54:42;6.50;99.90
26595;DHT22;14238;49.496;8.154;2023-02-02T07:57:07;6.60;99.90
26595;DHT22;14238;49.496;8.154;2023-02-02T07:59:33;6.60;99.90
26595;DHT22;14238;49.496;8.154;2023-02-02T08:01:58;6.60;99.90
26595;DHT22;14238;49.496;8.154;2023-02-02T08:04:24;6.60;99.90
26595;DHT22;14238;49.496;8.154;2023-02-02T08:06:50;6.60;99.90
26595;DHT22;14238;49.496;8.154;2023-02-02T08:09:15;6.70;99.90
26595;DHT22;14238;49.496;8.154;2023-02-02T08:11:41;6.60;99.90
26595;DHT22;14238;49.496;8.154;2023-02-02T08:14:06;6.60;99.90
26595;DHT22;14238;49.496;8.154;2023-02-02T08:16:32;6.60;99.90
26595;DHT22;14238;49.496;8.154;2023-02-02T08:18:58;6.60;99.90
26595;DHT22;14238;49.496;8.154;2023-02-02T08:21:24;6.60;99.90
26595;DHT22;14238;49.496;8.154;2023-02-02T08:23:51;6.50;99.90
26595;DHT22;14238;49.496;8.154;2023-02-02T08:26:21;6.60;99.90
26595;DHT22;14238;49.496;8.154;2023-02-02T08:28:52;6.60;99.90
26595;DHT22;14238;49.496;8.154;2023-02-02T08:31:20;6.70;99.90
26595;DHT22;14238;49.496;8.154;2023-02-02T08:33:46;6.80;99.90
26595;DHT22;14238;49.496;8.154;2023-02-02T08:36:13;6.80;99.90
26595;DHT22;14238;49.496;8.154;2023-02-02T08:38:39;6.80;99.90
26595;DHT22;14238;49.496;8.154;2023-02-02T08:41:07;6.80;99.90
26595;DHT22;14238;49.496;8.154;2023-02-02T08:43:33;6.80;99.90
26595;DHT22;14238;49.496;8.154;2023-02-02T08:45:59;6.80;99.90
26595;DHT22;14238;49.496;8.154;2023-02-02T08:48:24;6.90;99.90
26595;DHT22;14238;49.496;8.154;2023-02-02T08:50:57;7.00;99.90
26595;DHT22;14238;49.496;8.154;2023-02-02T08:53:24;7.00;99.90
26595;DHT22;14238;49.496;8.154;2023-02-02T08:56:00;7.00;99.90
26595;DHT22;14238;49.496;8.154;2023-02-02T08:58:27;7.00;99.90
26595;DHT22;14238;49.496;8.154;2023-02-02T09:00:53;7.10;99.90
26595;DHT22;14238;49.496;8.154;2023-02-02T09:03:19;7.00;99.90
26595;DHT22;14238;49.496;8.154;2023-02-02T09:05:44;7.10;99.90
26595;DHT22;14238;49.496;8.154;2023-02-02T09:08:10;7.10;99.90
26595;DHT22;14238;49.496;8.154;2023-02-02T09:10:36;7.10;99.90
26595;DHT22;14238;49.496;8.154;2023-02-02T09:13:02;7.10;99.90
26595;DHT22;14238;49.496;8.154;2023-02-02T09:15:29;7.10;99.90
26595;DHT22;14238;49.496;8.154;2023-02-02T09:17:54;7.20;99.90
26595;DHT22;14238;49.496;8.154;2023-02-02T09:20:20;7.20;99.90
26595;DHT22;14238;49.496;8.154;2023-02-02T09:22:45;7.20;99.90
26595;DHT22;14238;49.496;8.154;2023-02-02T09:25:11;7.20;99.90
26595;DHT22;14238;49.496;8.154;2023-02-02T09:27:37;7.30;99.90
26595;DHT22;14238;49.496;8.154;2023-02-02T09:30:04;7.30;99.90
26595;DHT22;14238;49.496;8.154;2023-02-02T09:32:29;7.40;99.90
26595;DHT22;14238;49.496;8.154;2023-02-02T09:34:55;7.40;99.90
26595;DHT22;14238;49.496;8.154;2023-02-02T09:37:20;7.40;99.90
26595;DHT22;14238;49.496;8.154;2023-02-02T09:39:46;7.40;99.90
26595;DHT22;14238;49.496;8.154;2023-02-02T09:48:08;7.50;99.90
26595;DHT22;14238;49.496;8.154;2023-02-02T09:51:00;7.50;99.90
26595;DHT22;14238;49.496;8.154;2023-02-02T09:53:34;7.60;99.90
26595;DHT22;14238;49.496;8.154;2023-02-02T09:56:05;7.60;99.90
26595;DHT22;14238;49.496;8.154;2023-02-02T09:58:35;7.70;99.90
26595;DHT22;14238;49.496;8.154;2023-02-02T10:06:27;7.70;99.90
26595;DHT22;14238;49.496;8.154;2023-02-02T10:09:00;7.70;99.90
26595;DHT22;14238;49.496;8.154;2023-02-02T10:12:00;7.60;99.90
26595;DHT22;14238;49.496;8.154;2023-02-02T10:14:33;7.60;99.90
26595;DHT22;14238;49.496;8.154;2023-02-02T10:23:36;7.50;99.90
26595;DHT22;14238;49.496;8.154;2023-02-02T10:31:42;7.40;99.90
26595;DHT22;14238;49.496;8.154;2023-02-02T10:34:20;7.50;99.90
26595;DHT22;14238;49.496;8.154;2023-02-02T10:39:47;7.60;99.90
26595;DHT22;14238;49.496;8.154;2023-02-02T10:45:31;7.60;99.90
26595;DHT22;14238;49.496;8.154;2023-02-02T10:47:57;7.60;99.90
26595;DHT22;14238;49.496;8.154;2023-02-02T10:50:23;7.70;99.90
26595;DHT22;14238;49.496;8.154;2023-02-02T10:52:58;7.70;99.90
26595;DHT22;14238;49.496;8.154;2023-02-02T10:55:30;7.80;99.90
26595;DHT22;14238;49.496;8.154;2023-02-02T10:58:18;7.80;99.90
26595;DHT22;14238;49.496;8.154;2023-02-02T11:00:46;7.80;99.90
26595;DHT22;14238;49.496;8.154;2023-02-02T11:03:16;7.90;99.90
26595;DHT22;14238;49.496;8.154;2023-02-02T11:05:44;7.80;99.90
26595;DHT22;14238;49.496;8.154;2023-02-02T11:08:40;7.90;99.90
26595;DHT22;14238;49.496;8.154;2023-02-02T11:16:33;7.90;99.90
26595;DHT22;14238;49.496;8.154;2023-02-02T11:18:59;8.10;99.90
26595;DHT22;14238;49.496;8.154;2023-02-02T11:21:30;8.10;99.90
26595;DHT22;14238;49.496;8.154;2023-02-02T11:24:05;8.10;99.90
26595;DHT22;14238;49.496;8.154;2023-02-02T11:27:01;8.20;99.90
26595;DHT22;14238;49.496;8.154;2023-02-02T11:32:32;8.20;99.90
26595;DHT22;14238;49.496;8.154;2023-02-02T11:37:34;8.20;99.90
26595;DHT22;14238;49.496;8.154;2023-02-02T11:40:29;8.20;99.90
26595;DHT22;14238;49.496;8.154;2023-02-02T11:42:56;8.20;99.90
26595;DHT22;14238;49.496;8.154;2023-02-02T11:45:33;8.20;99.90
26595;DHT22;14238;49.496;8.154;2023-02-02T11:48:17;8.20;99.90
26595;DHT22;14238;49.496;8.154;2023-02-02T11:50:52;8.20;99.90
26595;DHT22;14238;49.496;8.154;2023-02-02T11:56:26;8.00;99.90
26595;DHT22;14238;49.496;8.154;2023-02-02T11:58:53;8.00;99.90
26595;DHT22;14238;49.496;8.154;2023-02-02T12:01:27;7.90;99.90
26595;DHT22;14238;49.496;8.154;2023-02-02T12:03:58;8.00;99.90
26595;DHT22;14238;49.496;8.154;2023-02-02T12:06:35;8.00;99.90
26595;DHT22;14238;49.496;8.154;2023-02-02T12:09:12;8.00;99.90
26595;DHT22;14238;49.496;8.154;2023-02-02T12:17:20;8.10;99.90
26595;DHT22;14238;49.496;8.154;2023-02-02T12:41:23;9.90;99.90
26595;DHT22;14238;49.496;8.154;2023-02-02T12:44:14;10.00;99.90
26595;DHT22;14238;49.496;8.154;2023-02-02T12:55:13;12.10;99.90
26595;DHT22;14238;49.496;8.154;2023-02-02T12:57:52;11.30;99.90
26595;DHT22;14238;49.496;8.154;2023-02-02T13:03:27;10.40;99.90
26595;DHT22;14238;49.496;8.154;2023-02-02T13:06:08;9.70;99.90
26595;DHT22;14238;49.496;8.154;2023-02-02T13:08:47;9.60;99.90
26595;DHT22;14238;49.496;8.154;2023-02-02T13:11:34;9.50;99.90
26595;DHT22;14238;49.496;8.154;2023-02-02T13:14:08;9.40;99.90
26595;DHT22;14238;49.496;8.154;2023-02-02T13:16:36;9.30;99.90
26595;DHT22;14238;49.496;8.154;2023-02-02T13:19:09;9.40;99.90
26595;DHT22;14238;49.496;8.154;2023-02-02T13:21:37;9.20;99.90
26595;DHT22;14238;49.496;8.154;2023-02-02T13:24:05;9.30;99.90
26595;DHT22;14238;49.496;8.154;2023-02-02T13:26:37;9.40;99.90
26595;DHT22;14238;49.496;8.154;2023-02-02T13:31:57;9.40;99.90
26595;DHT22;14238;49.496;8.154;2023-02-02T13:34:38;9.80;99.90
26595;DHT22;14238;49.496;8.154;2023-02-02T13:40:19;9.20;99.90
26595;DHT22;14238;49.496;8.154;2023-02-02T13:43:06;9.30;99.90
26595;DHT22;14238;49.496;8.154;2023-02-02T13:48:15;9.10;99.90
26595;DHT22;14238;49.496;8.154;2023-02-02T14:02:42;8.80;99.90
26595;DHT22;14238;49.496;8.154;2023-02-02T14:07:46;9.00;99.90
26595;DHT22;14238;49.496;8.154;2023-02-02T14:10:23;9.10;99.90
26595;DHT22;14238;49.496;8.154;2023-02-02T14:12:50;9.00;99.90
26595;DHT22;14238;49.496;8.154;2023-02-02T14:15:16;9.10;99.90
26595;DHT22;14238;49.496;8.154;2023-02-02T14:26:11;8.90;99.90
26595;DHT22;14238;49.496;8.154;2023-02-02T14:28:46;8.90;99.90
26595;DHT22;14238;49.496;8.154;2023-02-02T14:31:52;9.00;99.90
26595;DHT22;14238;49.496;8.154;2023-02-02T14:34:34;8.90;99.90
26595;DHT22;14238;49.496;8.154;2023-02-02T14:39:57;8.70;99.90
26595;DHT22;14238;49.496;8.154;2023-02-02T14:45:47;8.60;99.90
26595;DHT22;14238;49.496;8.154;2023-02-02T14:50:48;8.60;99.90
26595;DHT22;14238;49.496;8.154;2023-02-02T14:53:16;8.60;99.90
26595;DHT22;14238;49.496;8.154;2023-02-02T14:58:36;8.70;99.90
26595;DHT22;14238;49.496;8.154;2023-02-02T15:01:04;8.60;99.90
26595;DHT22;14238;49.496;8.154;2023-02-02T15:03:36;8.60;99.90
26595;DHT22;14238;49.496;8.154;2023-02-02T15:06:26;8.50;99.90
26595;DHT22;14238;49.496;8.154;2023-02-02T15:14:35;8.30;99.90
26595;DHT22;14238;49.496;8.154;2023-02-02T15:20:03;8.30;99.90
26595;DHT22;14238;49.496;8.154;2023-02-02T15:25:29;8.20;99.90
26595;DHT22;14238;49.496;8.154;2023-02-02T15:30:53;8.30;99.90
26595;DHT22;14238;49.496;8.154;2023-02-02T15:33:37;8.20;99.90
26595;DHT22;14238;49.496;8.154;2023-02-02T15:36:19;8.20;99.90
26595;DHT22;14238;49.496;8.154;2023-02-02T15:38:49;8.20;99.90
26595;DHT22;14238;49.496;8.154;2023-02-02T15:41:45;8.10;99.90
26595;DHT22;14238;49.496;8.154;2023-02-02T15:44:19;8.10;99.90
26595;DHT22;14238;49.496;8.154;2023-02-02T15:46:46;8.10;99.90
26595;DHT22;14238;49.496;8.154;2023-02-02T15:49:26;8.10;99.90
26595;DHT22;14238;49.496;8.154;2023-02-02T15:51:57;8.00;99.90
26595;DHT22;14238;49.496;8.154;2023-02-02T15:54:32;8.00;99.90
26595;DHT22;14238;49.496;8.154;2023-02-02T15:57:00;8.00;99.90
26595;DHT22;14238;49.496;8.154;2023-02-02T15:59:29;8.00;99.90
26595;DHT22;14238;49.496;8.154;2023-02-02T16:04:37;8.00;99.90
26595;DHT22;14238;49.496;8.154;2023-02-02T16:07:05;8.00;99.90
26595;DHT22;14238;49.496;8.154;2023-02-02T16:09:35;8.00;99.90
26595;DHT22;14238;49.496;8.154;2023-02-02T16:12:04;7.90;99.90
26595;DHT22;14238;49.496;8.154;2023-02-02T16:14:31;7.90;99.90
26595;DHT22;14238;49.496;8.154;2023-02-02T16:17:31;7.90;99.90
26595;DHT22;14238;49.496;8.154;2023-02-02T16:20:05;7.90;99.90
26595;DHT22;14238;49.496;8.154;2023-02-02T16:22:36;7.90;99.90
26595;DHT22;14238;49.496;8.154;2023-02-02T16:25:15;7.90;99.90
26595;DHT22;14238;49.496;8.154;2023-02-02T16:27:43;7.80;99.90
26595;DHT22;14238;49.496;8.154;2023-02-02T16:30:27;7.90;99.90
26595;DHT22;14238;49.496;8.154;2023-02-02T16:32:54;7.90;99.90
26595;DHT22;14238;49.496;8.154;2023-02-02T16:38:32;7.80;99.90
26595;DHT22;14238;49.496;8.154;2023-02-02T16:41:06;7.80;99.90
26595;DHT22;14238;49.496;8.154;2023-02-02T16:43:33;7.70;99.90
26595;DHT22;14238;49.496;8.154;2023-02-02T16:46:11;7.70;99.90
26595;DHT22;14238;49.496;8.154;2023-02-02T16:48:58;7.70;99.90
26595;DHT22;14238;49.496;8.154;2023-02-02T16:51:28;7.70;99.90
26595;DHT22;14238;49.496;8.154;2023-02-02T16:56:37;7.70;99.90
26595;DHT22;14238;49.496;8.154;2023-02-02T16:59:13;7.70;99.90
26595;DHT22;14238;49.496;8.154;2023-02-02T17:01:46;7.60;99.90
26595;DHT22;14238;49.496;8.154;2023-02-02T17:04:28;7.60;99.90
26595;DHT22;14238;49.496;8.154;2023-02-02T17:06:57;7.50;99.90
26595;DHT22;14238;49.496;8.154;2023-02-02T17:09:37;7.50;99.90
26595;DHT22;14238;49.496;8.154;2023-02-02T17:14:49;7.40;99.90
26595;DHT22;14238;49.496;8.154;2023-02-02T17:17:16;7.50;99.90
26595;DHT22;14238;49.496;8.154;2023-02-02T17:19:41;7.40;99.90
26595;DHT22;14238;49.496;8.154;2023-02-02T17:22:07;7.40;99.90
26595;DHT22;14238;49.496;8.154;2023-02-02T17:24:33;7.40;99.90
26595;DHT22;14238;49.496;8.154;2023-02-02T17:26:59;7.40;99.90
26595;DHT22;14238;49.496;8.154;2023-02-02T17:29:25;7.40;99.90
26595;DHT22;14238;49.496;8.154;2023-02-02T17:31:51;7.40;99.90
26595;DHT22;14238;49.496;8.154;2023-02-02T17:34:18;7.30;99.90
26595;DHT22;14238;49.496;8.154;2023-02-02T17:36:43;7.30;99.90
26595;DHT22;14238;49.496;8.154;2023-02-02T17:39:09;7.30;99.90
26595;DHT22;14238;49.496;8.154;2023-02-02T17:41:35;7.20;99.90
26595;DHT22;14238;49.496;8.154;2023-02-02T17:44:01;7.20;99.90
26595;DHT22;14238;49.496;8.154;2023-02-02T17:46:30;7.20;99.90
26595;DHT22;14238;49.496;8.154;2023-02-02T17:48:56;7.20;99.90
26595;DHT22;14238;49.496;8.154;2023-02-02T17:51:22;7.20;99.90
26595;DHT22;14238;49.496;8.154;2023-02-02T17:53:47;7.20;99.90
26595;DHT22;14238;49.496;8.154;2023-02-02T17:56:13;7.20;99.90
26595;DHT22;14238;49.496;8.154;2023-02-02T17:58:39;7.20;99.90
26595;DHT22;14238;49.496;8.154;2023-02-02T18:01:04;7.10;99.90
26595;DHT22;14238;49.496;8.154;2023-02-02T18:03:33;7.10;99.90
26595;DHT22;14238;49.496;8.154;2023-02-02T18:05:59;7.10;99.90
26595;DHT22;14238;49.496;8.154;2023-02-02T18:08:29;7.10;99.90
26595;DHT22;14238;49.496;8.154;2023-02-02T18:10:56;7.10;99.90
26595;DHT22;14238;49.496;8.154;2023-02-02T18:13:22;7.10;99.90
26595;DHT22;14238;49.496;8.154;2023-02-02T18:15:49;7.10;99.90
26595;DHT22;14238;49.496;8.154;2023-02-02T18:18:15;7.10;99.90
26595;DHT22;14238;49.496;8.154;2023-02-02T18:20:45;7.00;99.90
26595;DHT22;14238;49.496;8.154;2023-02-02T18:23:11;7.10;99.90
26595;DHT22;14238;49.496;8.154;2023-02-02T18:25:37;7.10;99.90
26595;DHT22;14238;49.496;8.154;2023-02-02T18:28:04;7.10;99.90
26595;DHT22;14238;49.496;8.154;2023-02-02T18:30:30;7.00;99.90
26595;DHT22;14238;49.496;8.154;2023-02-02T18:32:56;7.00;99.90
26595;DHT22;14238;49.496;8.154;2023-02-02T18:35:22;7.00;99.90
26595;DHT22;14238;49.496;8.154;2023-02-02T18:37:49;7.10;99.90
26595;DHT22;14238;49.496;8.154;2023-02-02T18:40:15;7.00;99.90
26595;DHT22;14238;49.496;8.154;2023-02-02T18:42:40;7.10;99.90
26595;DHT22;14238;49.496;8.154;2023-02-02T18:45:06;7.10;99.90
26595;DHT22;14238;49.496;8.154;2023-02-02T18:47:32;7.10;99.90
26595;DHT22;14238;49.496;8.154;2023-02-02T18:49:58;7.00;99.90
26595;DHT22;14238;49.496;8.154;2023-02-02T18:52:23;7.00;99.90
26595;DHT22;14238;49.496;8.154;2023-02-02T18:54:49;7.00;99.90